Time;durP1;ratioP1;P1;durP2;ratioP2;P2;SDS_P1;SDS_P2;PMS_P1;PMS_P2;Temp;Humidity;BMP_temperature;BMP_pressure;BME280_temperature;BME280_humidity;BME280_pressure;Samples;Min_cycle;Max_cycle;Signal;HPM_P1;HPM_P2
2022/07/28 00:00:00;;;;;;;19.63;15.05;;;;;;;22.49;89.13;96690.75;4985511;28;20486;-61
2022/07/28 00:02:27;;;;;;;17.83;14.73;;;;;;;22.49;89.43;96696.38;4984856;28;20496;-60
2022/07/28 00:04:54;;;;;;;18.77;15.05;;;;;;;22.04;88.95;96642.34;4985258;28;20141;-66
2022/07/28 00:07:21;;;;;;;19.02;13.98;;;;;;;22.06;89.74;96645.50;4985309;28;20121;-59
2022/07/28 00:09:48;;;;;;;18.65;14.27;;;;;;;22.30;90.79;96700.28;4985450;28;20525;-65
2022/07/28 00:12:15;;;;;;;15.38;13.30;;;;;;;21.88;90.27;96656.59;4983829;28;20062;-66
2022/07/28 00:14:41;;;;;;;17.67;13.88;;;;;;;21.91;89.26;96661.31;4985364;28;20596;-60
2022/07/28 00:17:08;;;;;;;20.98;14.23;;;;;;;22.17;88.98;96705.19;4998838;28;20054;-66
2022/07/28 00:19:35;;;;;;;16.92;13.88;;;;;;;22.16;89.36;96703.59;5004856;28;20058;-61
2022/07/28 00:22:03;;;;;;;17.85;14.05;;;;;;;22.15;88.31;96709.69;5004724;28;20050;-62
2022/07/28 00:24:30;;;;;;;15.48;13.65;;;;;;;22.14;86.90;96708.13;5004765;28;20058;-59
2022/07/28 00:26:57;;;;;;;15.63;12.68;;;;;;;22.15;85.72;96704.84;5004693;28;20583;-60
2022/07/28 00:29:25;;;;;;;16.55;13.02;;;;;;;22.09;86.03;96701.03;5004596;28;20053;-65
2022/07/28 00:32:12;;;;;;;19.02;14.30;;;;;;;22.06;85.93;96701.94;5004672;28;20118;-65
2022/07/28 00:34:39;;;;;;;17.20;13.75;;;;;;;21.91;85.77;96655.69;5004694;28;20189;-61
2022/07/28 00:37:08;;;;;;;16.30;13.65;;;;;;;22.16;84.80;96706.41;5007166;28;20053;-61
2022/07/28 00:39:40;;;;;;;16.80;12.18;;;;;;;22.13;84.92;96701.69;5007301;28;20440;-61
2022/07/28 00:42:06;;;;;;;14.73;12.88;;;;;;;22.12;85.11;96714.22;5008148;28;20057;-60
2022/07/28 00:44:33;;;;;;;15.60;12.90;;;;;;;22.11;85.19;96704.16;5008283;28;20135;-66
2022/07/28 00:47:00;;;;;;;17.20;13.43;;;;;;;21.94;85.44;96682.22;5008058;28;20053;-60
2022/07/28 00:49:26;;;;;;;16.30;13.48;;;;;;;22.09;84.26;96698.19;5008211;28;20057;-66
2022/07/28 00:51:53;;;;;;;18.30;12.82;;;;;;;21.67;83.82;96633.94;5008099;28;20077;-62
2022/07/28 00:54:20;;;;;;;16.25;13.32;;;;;;;22.01;84.62;96710.97;5008310;28;20097;-60
2022/07/28 00:56:46;;;;;;;16.40;13.65;;;;;;;21.64;85.44;96668.66;5007637;28;20050;-61
2022/07/28 00:59:13;;;;;;;17.80;13.48;;;;;;;21.90;85.92;96699.25;5007672;28;20050;-60
2022/07/28 01:01:40;;;;;;;18.95;14.70;;;;;;;21.98;85.88;96700.59;5008011;28;20069;-66
2022/07/28 01:04:07;;;;;;;14.38;12.70;;;;;;;22.02;85.59;96706.13;5007769;28;20058;-60
2022/07/28 01:06:45;;;;;;;18.05;13.50;;;;;;;22.09;85.60;96695.38;5008478;28;20057;-60
2022/07/28 01:09:31;;;;;;;16.38;13.50;;;;;;;21.84;82.98;96653.13;5008189;28;20432;-60
2022/07/28 01:12:03;;;;;;;15.52;12.40;;;;;;;22.12;82.45;96694.47;5008230;28;20057;-66
2022/07/28 01:14:43;;;;;;;15.45;12.52;;;;;;;21.69;82.15;96620.16;5006670;28;20053;-59
2022/07/28 01:17:23;;;;;;;16.30;12.85;;;;;;;22.02;82.15;96678.69;4994024;28;20062;-65
2022/07/28 01:20:24;;;;;;;16.27;12.50;;;;;;;21.91;83.87;96689.53;4988017;28;20617;-62
2022/07/28 01:23:23;;;;;;;16.83;12.80;;;;;;;21.96;84.02;96691.78;4993295;28;20061;-63
2022/07/28 01:26:18;;;;;;;15.50;13.07;;;;;;;22.01;83.38;96693.25;4988719;28;20056;-60
2022/07/28 01:29:16;;;;;;;17.38;13.02;;;;;;;21.84;84.40;96698.25;4986720;28;20061;-66
2022/07/28 01:31:50;;;;;;;14.25;11.95;;;;;;;21.82;83.56;96692.25;4986456;28;20131;-60
2022/07/28 01:34:27;;;;;;;16.80;12.82;;;;;;;21.70;84.36;96697.88;4986494;28;20051;-65
2022/07/28 01:36:58;;;;;;;17.15;12.98;;;;;;;21.57;85.06;96683.78;4987439;28;20061;-66
2022/07/28 01:39:29;;;;;;;18.25;13.52;;;;;;;21.59;85.42;96689.75;4987878;28;20058;-66
2022/07/28 01:41:58;;;;;;;13.90;12.40;;;;;;;21.11;84.88;96650.59;4987750;28;20061;-59
2022/07/28 01:44:27;;;;;;;14.88;12.38;;;;;;;21.60;85.02;96684.91;4987671;28;20061;-60
2022/07/28 01:46:56;;;;;;;15.63;12.73;;;;;;;21.54;86.11;96687.50;4987176;28;20054;-66
2022/07/28 01:49:26;;;;;;;17.50;13.43;;;;;;;21.56;85.28;96679.38;4986440;28;20065;-65
2022/07/28 01:51:55;;;;;;;21.42;15.35;;;;;;;21.23;87.65;96635.72;4987524;28;20050;-66
2022/07/28 01:54:23;;;;;;;17.17;12.80;;;;;;;21.49;86.09;96685.25;4987289;28;20333;-59
2022/07/28 01:56:52;;;;;;;16.10;13.07;;;;;;;21.49;85.13;96684.44;4987307;28;20057;-66
2022/07/28 01:59:22;;;;;;;15.68;11.68;;;;;;;21.43;85.69;96687.06;4987250;28;20058;-60
2022/07/28 02:01:51;;;;;;;15.82;13.05;;;;;;;21.44;85.20;96676.53;4985463;28;20058;-62
2022/07/28 02:04:20;;;;;;;15.05;11.88;;;;;;;21.47;84.23;96682.06;4987463;28;20050;-60
2022/07/28 02:06:49;;;;;;;17.05;12.32;;;;;;;21.39;84.84;96685.56;4987431;28;20054;-66
2022/07/28 02:09:17;;;;;;;16.42;12.70;;;;;;;21.17;83.93;96634.72;4987561;28;20073;-60
2022/07/28 02:11:46;;;;;;;18.17;12.63;;;;;;;21.43;84.94;96692.69;4986978;28;20097;-66
2022/07/28 02:14:16;;;;;;;16.30;12.75;;;;;;;21.15;85.02;96651.28;4985741;28;20054;-60
2022/07/28 02:16:47;;;;;;;17.65;12.85;;;;;;;20.62;91.44;96683.00;4995250;28;20049;-66
2022/07/28 02:19:17;;;;;;;19.35;15.23;;;;;;;20.81;95.22;96708.19;5006945;28;20062;-66
2022/07/28 02:21:46;;;;;;;20.77;16.80;;;;;;;20.93;96.28;96704.63;5006631;28;20053;-60
2022/07/28 02:24:16;;;;;;;20.52;16.25;;;;;;;21.04;96.81;96709.97;5006875;28;20053;-60
2022/07/28 02:26:52;;;;;;;23.10;17.17;;;;;;;20.53;97.83;96629.41;5006209;28;20471;-65
2022/07/28 02:29:23;;;;;;;20.33;16.83;;;;;;;20.74;98.52;96662.53;5006172;28;20521;-60
2022/07/28 02:32:23;;;;;;;20.90;16.80;;;;;;;20.95;99.56;96695.72;5005992;28;20508;-60
2022/07/28 02:35:00;;;;;;;21.92;17.60;;;;;;;21.02;99.66;96701.19;5005022;28;20136;-60
2022/07/28 02:37:35;;;;;;;21.27;17.05;;;;;;;21.17;98.62;96705.16;5006331;28;20057;-59
2022/07/28 02:40:03;;;;;;;20.08;15.65;;;;;;;21.27;97.10;96701.22;4997763;28;20076;-66
2022/07/28 02:42:33;;;;;;;23.13;15.27;;;;;;;20.95;93.08;96656.28;4987800;28;20054;-66
2022/07/28 02:45:03;;;;;;;21.48;14.48;;;;;;;21.10;90.27;96719.47;4986533;28;20185;-61
2022/07/28 02:47:39;;;;;;;16.60;13.90;;;;;;;20.80;89.52;96669.22;4985695;28;20066;-60
2022/07/28 02:50:06;;;;;;;18.25;13.93;;;;;;;21.17;88.30;96715.63;4986499;28;20077;-62
2022/07/28 02:52:34;;;;;;;16.50;13.20;;;;;;;21.11;87.49;96718.22;4986698;28;20073;-59
2022/07/28 02:55:02;;;;;;;19.77;12.98;;;;;;;21.06;87.12;96735.66;4986489;28;20053;-60
2022/07/28 02:57:30;;;;;;;16.60;11.55;;;;;;;21.08;86.92;96719.13;4986660;28;20124;-65
2022/07/28 02:59:57;;;;;;;17.85;12.43;;;;;;;20.66;86.86;96669.63;4985924;28;20062;-60
2022/07/28 03:02:24;;;;;;;17.00;12.82;;;;;;;21.13;85.86;96723.41;4984983;28;20456;-60
2022/07/28 03:05:01;;;;;;;16.60;12.75;;;;;;;21.03;85.51;96730.94;4984448;28;20517;-66
2022/07/28 03:07:35;;;;;;;14.38;11.27;;;;;;;20.96;85.54;96729.09;4986456;28;20062;-61
2022/07/28 03:10:18;;;;;;;14.73;11.45;;;;;;;20.96;85.47;96737.53;4985668;28;20493;-60
2022/07/28 03:13:01;;;;;;;14.98;11.55;;;;;;;20.95;86.13;96735.16;4986417;28;20181;-60
2022/07/28 03:15:29;;;;;;;18.52;13.27;;;;;;;20.76;88.02;96722.81;4985455;28;20064;-60
2022/07/28 03:17:56;;;;;;;19.42;13.70;;;;;;;20.76;90.16;96733.28;4966943;28;20059;-61
2022/07/28 03:20:23;;;;;;;18.50;15.48;;;;;;;20.53;91.76;96716.63;4966459;28;20061;-60
2022/07/28 03:22:50;;;;;;;26.45;18.33;;;;;;;20.52;93.72;96751.63;4965301;28;20055;-60
2022/07/28 03:25:25;;;;;;;25.30;15.35;;;;;;;20.15;97.73;96726.91;4964916;28;20050;-66
2022/07/28 03:27:54;;;;;;;23.05;16.10;;;;;;;20.46;97.89;96742.94;4966477;28;20059;-66
2022/07/28 03:30:30;;;;;;;26.73;16.77;;;;;;;20.57;97.08;96742.66;4966281;28;20054;-60
2022/07/28 03:32:59;;;;;;;21.33;17.17;;;;;;;20.67;96.69;96747.22;4966710;28;20512;-66
2022/07/28 03:35:28;;;;;;;22.50;15.95;;;;;;;20.26;96.63;96676.78;4964623;28;20062;-59
2022/07/28 03:38:10;;;;;;;23.25;15.27;;;;;;;20.82;96.15;96737.13;4966267;28;20118;-65
2022/07/28 03:40:37;;;;;;;19.77;14.20;;;;;;;20.87;92.70;96745.03;4966117;28;20054;-65
2022/07/28 03:43:07;;;;;;;16.05;11.25;;;;;;;20.89;86.34;96748.19;4966203;28;20054;-62
2022/07/28 03:45:34;;;;;;;14.48;10.50;;;;;;;20.92;84.61;96742.47;4966084;28;20081;-60
2022/07/28 03:48:02;;;;;;;12.45;10.85;;;;;;;20.72;84.73;96738.22;4966027;28;20502;-61
2022/07/28 03:50:31;;;;;;;13.48;10.23;;;;;;;20.87;85.06;96751.47;4966261;28;20061;-59
2022/07/28 03:52:59;;;;;;;15.27;11.50;;;;;;;20.96;84.71;96748.00;4965919;28;20101;-60
2022/07/28 03:55:26;;;;;;;15.15;10.98;;;;;;;20.70;84.34;96702.06;4965851;28;20051;-66
2022/07/28 03:57:53;;;;;;;16.58;10.40;;;;;;;21.12;82.70;96745.13;4966195;28;20050;-59
2022/07/28 04:00:20;;;;;;;12.75;9.80;;;;;;;21.24;81.46;96740.78;4964537;28;20051;-59
2022/07/28 04:02:48;;;;;;;10.50;9.25;;;;;;;21.28;80.24;96730.97;4965714;28;20054;-60
2022/07/28 04:05:16;;;;;;;13.88;9.70;;;;;;;21.27;80.10;96732.22;4965823;28;20058;-60
2022/07/28 04:07:47;;;;;;;12.95;9.35;;;;;;;21.46;79.69;96747.34;4965943;28;20444;-60
2022/07/28 04:10:15;;;;;;;13.68;9.98;;;;;;;21.64;79.12;96751.19;4965805;28;20070;-65
2022/07/28 04:12:46;;;;;;;12.95;9.25;;;;;;;21.80;77.70;96748.31;4969668;28;20058;-66
2022/07/28 04:15:14;;;;;;;12.38;9.32;;;;;;;21.92;76.94;96746.75;4969831;28;20074;-65
2022/07/28 04:17:42;;;;;;;10.65;8.75;;;;;;;22.03;75.33;96753.63;4985233;28;20058;-65
2022/07/28 04:20:09;;;;;;;11.02;8.65;;;;;;;21.89;74.97;96725.09;4987828;28;20073;-65
2022/07/28 04:22:36;;;;;;;11.90;9.65;;;;;;;21.74;75.61;96713.44;5020156;28;20054;-59
2022/07/28 04:25:04;;;;;;;11.52;9.38;;;;;;;22.18;75.98;96760.38;4988973;28;20072;-65
2022/07/28 04:27:30;;;;;;;13.05;8.73;;;;;;;22.31;75.01;96769.63;4989055;28;20057;-65
2022/07/28 04:29:57;;;;;;;12.95;10.05;;;;;;;22.15;75.19;96721.78;4988783;28;20983;-59
2022/07/28 04:32:24;;;;;;;12.30;9.00;;;;;;;22.60;73.69;96763.03;4989140;28;20050;-60
2022/07/28 04:34:50;;;;;;;11.88;9.63;;;;;;;22.70;72.65;96767.53;4988913;28;20051;-65
2022/07/28 04:37:17;;;;;;;9.40;8.27;;;;;;;22.72;72.81;96765.00;4989208;28;20065;-60
2022/07/28 04:39:44;;;;;;;14.52;9.07;;;;;;;22.79;72.56;96770.41;4988917;28;20614;-66
2022/07/28 04:42:11;;;;;;;14.38;9.45;;;;;;;22.89;72.72;96769.25;5020087;28;20257;-59
2022/07/28 04:44:41;;;;;;;11.32;8.90;;;;;;;22.96;72.99;96771.81;4988763;28;20472;-59
2022/07/28 04:47:08;;;;;;;12.85;10.05;;;;;;;23.09;72.45;96781.03;4980994;28;20058;-60
2022/07/28 04:49:34;;;;;;;17.52;11.10;;;;;;;22.70;72.60;96716.69;4968123;28;20445;-61
2022/07/28 04:52:02;;;;;;;13.50;11.10;;;;;;;23.26;72.45;96782.44;4966302;28;20050;-59
2022/07/28 04:54:29;;;;;;;13.88;10.40;;;;;;;23.36;71.74;96769.97;4968937;28;20059;-61
2022/07/28 04:56:55;;;;;;;13.52;10.55;;;;;;;23.49;70.27;96782.00;4967763;28;20463;-66
2022/07/28 04:59:22;;;;;;;16.95;11.13;;;;;;;23.59;69.50;96763.81;4968917;28;20058;-61
2022/07/28 05:01:50;;;;;;;15.00;11.52;;;;;;;23.51;70.85;96754.03;4968951;28;20047;-66
2022/07/28 05:04:17;;;;;;;15.13;12.15;;;;;;;23.90;69.81;96781.56;4968815;28;20452;-59
2022/07/28 05:06:44;;;;;;;13.70;11.82;;;;;;;24.01;69.44;96782.00;4968517;28;20481;-61
2022/07/28 05:09:11;;;;;;;16.60;11.18;;;;;;;24.12;68.91;96781.56;4968690;28;20449;-59
2022/07/28 05:11:37;;;;;;;15.68;10.00;;;;;;;24.25;66.99;96780.19;4969085;28;20055;-61
2022/07/28 05:14:04;;;;;;;19.20;11.07;;;;;;;24.30;66.44;96771.09;4968847;28;20062;-59
2022/07/28 05:16:31;;;;;;;10.82;9.52;;;;;;;24.44;65.59;96784.66;4974662;28;20065;-61
2022/07/28 05:18:59;;;;;;;12.50;10.13;;;;;;;24.60;66.05;96784.38;4988157;28;20525;-60
2022/07/28 05:21:26;;;;;;;12.38;9.93;;;;;;;24.53;66.00;96801.66;4986819;28;20046;-66
2022/07/28 05:23:52;;;;;;;14.80;9.82;;;;;;;23.74;68.31;96719.59;4988056;28;20062;-65
2022/07/28 05:26:19;;;;;;;17.95;10.90;;;;;;;24.49;67.66;96801.03;4988020;28;20054;-60
2022/07/28 05:28:46;;;;;;;18.67;10.88;;;;;;;24.44;68.31;96798.81;4988155;28;20503;-66
2022/07/28 05:31:13;;;;;;;13.73;10.90;;;;;;;24.52;67.98;96788.75;4987731;28;20077;-65
2022/07/28 05:33:40;;;;;;;15.18;10.13;;;;;;;24.34;67.17;96720.78;4987760;28;20050;-65
2022/07/28 05:36:07;;;;;;;18.77;10.43;;;;;;;25.11;66.24;96793.91;4987100;28;20050;-64
2022/07/28 05:38:33;;;;;;;11.18;10.02;;;;;;;25.25;66.46;96795.31;4987575;28;20438;-65
2022/07/28 05:41:00;;;;;;;14.93;10.60;;;;;;;25.23;66.90;96809.19;4987635;28;20054;-65
2022/07/28 05:43:27;;;;;;;15.60;10.77;;;;;;;25.39;67.42;96816.63;4987004;28;20484;-65
2022/07/28 05:45:54;;;;;;;12.65;10.52;;;;;;;25.10;68.91;96803.66;4959939;28;20055;-67
2022/07/28 05:48:21;;;;;;;16.08;11.05;;;;;;;25.28;68.32;96812.19;4999152;28;20054;-62
2022/07/28 05:50:49;;;;;;;14.23;10.35;;;;;;;25.17;66.33;96768.53;4960634;28;20046;-59
2022/07/28 05:53:16;;;;;;;11.35;9.70;;;;;;;25.56;65.78;96786.66;4966998;28;20049;-58
2022/07/28 05:55:43;;;;;;;14.60;11.50;;;;;;;25.70;66.14;96808.72;4947481;28;20062;-60
2022/07/28 05:58:28;;;;;;;14.98;10.65;;;;;;;25.87;64.89;96812.75;4959349;28;20286;-63
2022/07/28 06:00:58;;;;;;;15.57;10.45;;;;;;;26.16;63.31;96807.34;4957426;28;20121;-61
2022/07/28 06:03:26;;;;;;;15.40;9.93;;;;;;;26.02;62.73;96765.44;4965215;28;20059;-61
2022/07/28 06:05:55;;;;;;;13.07;10.55;;;;;;;26.63;61.21;96813.13;4962752;28;20059;-74
2022/07/28 06:08:41;;;;;;;11.98;9.95;;;;;;;26.77;59.79;96806.75;4960092;28;20059;-59
2022/07/28 06:11:08;;;;;;;16.02;11.38;;;;;;;26.42;59.51;96746.00;4966055;28;20051;-62
2022/07/28 06:13:36;;;;;;;12.85;10.93;;;;;;;26.80;59.73;96800.09;4964954;28;20560;-64
2022/07/28 06:16:04;;;;;;;16.60;11.38;;;;;;;26.98;59.93;96811.38;4988125;28;20058;-67
2022/07/28 06:18:36;;;;;;;14.88;10.80;;;;;;;26.59;61.40;96815.34;4953742;28;20063;-72
2022/07/28 06:21:03;;;;;;;15.63;11.90;;;;;;;26.96;61.02;96816.75;4961937;28;20058;-59
2022/07/28 06:23:30;;;;;;;16.60;13.43;;;;;;;27.04;60.22;96798.03;4955951;28;20346;-68
2022/07/28 06:25:56;;;;;;;18.50;13.43;;;;;;;27.34;59.82;96816.81;4960849;28;20510;-65
2022/07/28 06:28:23;;;;;;;14.43;12.90;;;;;;;27.22;60.72;96808.50;4962032;28;20524;-60
2022/07/28 06:30:51;;;;;;;14.65;11.90;;;;;;;27.45;58.74;96808.50;4958028;28;20055;-57
2022/07/28 06:33:17;;;;;;;14.50;11.55;;;;;;;27.62;57.47;96800.25;4954721;28;20085;-61
2022/07/28 06:35:44;;;;;;;11.85;10.02;;;;;;;27.86;52.90;96790.38;4966017;28;20153;-60
2022/07/28 06:38:16;;;;;;;17.08;10.50;;;;;;;28.11;54.94;96806.09;4964917;28;20054;-59
2022/07/28 06:40:45;;;;;;;14.60;10.48;;;;;;;28.17;53.41;96797.66;4963768;28;20688;-62
2022/07/28 06:43:13;;;;;;;15.55;9.73;;;;;;;28.30;52.48;96806.66;4957840;28;20106;-61
2022/07/28 06:45:40;;;;;;;12.25;9.95;;;;;;;28.32;51.87;96753.59;4954355;28;20065;-66
2022/07/28 06:48:07;;;;;;;11.77;9.20;;;;;;;28.17;50.37;96697.94;4963118;28;20058;-69
2022/07/28 06:50:38;;;;;;;10.38;9.18;;;;;;;28.84;49.89;96806.75;4962748;28;20057;-66
2022/07/28 06:53:05;;;;;;;11.80;9.35;;;;;;;28.41;50.08;96746.97;4964416;28;20141;-60
2022/07/28 06:55:33;;;;;;;10.98;9.27;;;;;;;28.97;49.67;96800.69;4954128;28;20528;-61
2022/07/28 06:58:02;;;;;;;10.60;9.15;;;;;;;29.11;48.83;96819.84;4967211;28;20042;-59
2022/07/28 07:00:29;;;;;;;13.30;10.35;;;;;;;29.22;49.08;96811.44;4958723;28;20078;-61
2022/07/28 07:02:56;;;;;;;10.13;8.95;;;;;;;29.33;48.46;96815.22;4963163;28;20082;-59
2022/07/28 07:05:24;;;;;;;11.73;9.77;;;;;;;29.33;47.88;96814.44;4963281;28;20049;-62
2022/07/28 07:07:51;;;;;;;11.13;10.07;;;;;;;29.07;47.98;96751.59;4960822;28;20055;-60
2022/07/28 07:10:18;;;;;;;10.00;9.10;;;;;;;29.61;47.22;96818.38;4956015;28;20133;-63
2022/07/28 07:12:44;;;;;;;10.65;8.30;;;;;;;29.67;46.98;96804.97;4963457;28;20058;-61
2022/07/28 07:15:11;;;;;;;10.82;8.80;;;;;;;29.08;47.28;96772.34;4965304;28;20050;-65
2022/07/28 07:17:38;;;;;;;9.85;8.88;;;;;;;29.39;45.96;96801.00;4962922;28;20047;-64
2022/07/28 07:20:06;;;;;;;11.95;8.35;;;;;;;29.23;45.45;96735.94;4962706;28;20145;-59
2022/07/28 07:22:33;;;;;;;11.43;8.82;;;;;;;29.79;45.12;96800.97;4963568;28;20061;-60
2022/07/28 07:25:09;;;;;;;9.45;8.45;;;;;;;30.04;44.89;96794.47;4960764;28;20089;-68
2022/07/28 07:27:36;;;;;;;13.10;8.95;;;;;;;29.64;44.44;96728.88;4962323;28;20506;-61
2022/07/28 07:30:04;;;;;;;9.55;8.32;;;;;;;30.01;44.13;96755.47;4962293;28;20054;-63
2022/07/28 07:32:31;;;;;;;9.05;7.93;;;;;;;30.18;42.77;96770.69;4960350;28;20091;-63
2022/07/28 07:34:58;;;;;;;9.43;8.43;;;;;;;30.23;43.56;96789.19;4963055;28;20481;-69
2022/07/28 07:37:25;;;;;;;9.82;8.90;;;;;;;30.37;44.17;96789.06;4963392;28;20438;-62
2022/07/28 07:39:51;;;;;;;9.52;8.50;;;;;;;30.19;44.18;96737.94;4957218;28;20051;-61
2022/07/28 07:42:18;;;;;;;9.50;8.63;;;;;;;30.52;44.96;96780.31;4960882;28;20053;-66
2022/07/28 07:44:50;;;;;;;11.13;9.80;;;;;;;30.75;44.89;96784.88;4952213;28;20058;-60
2022/07/28 07:47:17;;;;;;;9.77;8.85;;;;;;;30.18;44.91;96775.59;4958457;28;20063;-62
2022/07/28 07:49:44;;;;;;;10.20;9.27;;;;;;;30.15;44.83;96780.25;4958125;28;20054;-64
2022/07/28 07:52:13;;;;;;;12.35;9.32;;;;;;;30.01;44.31;96744.03;4964090;28;20050;-63
2022/07/28 07:54:40;;;;;;;9.95;8.95;;;;;;;30.66;43.38;96768.72;4961678;28;20541;-62
2022/07/28 07:57:07;;;;;;;10.70;8.45;;;;;;;30.82;42.05;96785.25;4958902;28;20058;-62
2022/07/28 07:59:34;;;;;;;9.23;8.32;;;;;;;30.75;42.06;96771.38;4962066;28;20061;-66
2022/07/28 08:02:01;;;;;;;9.45;7.80;;;;;;;31.15;41.66;96766.66;4963500;28;20054;-63
2022/07/28 08:04:28;;;;;;;19.77;12.18;;;;;;;31.17;41.82;96749.75;4963118;28;20054;-67
2022/07/28 08:06:55;;;;;;;12.30;10.77;;;;;;;31.63;41.63;96784.56;4958023;28;20058;-65
2022/07/28 08:09:22;;;;;;;9.05;8.15;;;;;;;31.42;41.17;96763.16;4970554;28;20063;-63
2022/07/28 08:11:49;;;;;;;10.48;9.38;;;;;;;31.46;42.19;96778.03;4972243;28;20450;-62
2022/07/28 08:14:16;;;;;;;10.02;9.02;;;;;;;31.85;40.76;96778.91;4960963;28;20062;-71
2022/07/28 08:16:43;;;;;;;11.05;9.60;;;;;;;31.90;40.66;96775.28;4954673;28;20051;-65
2022/07/28 08:19:10;;;;;;;11.00;9.63;;;;;;;32.20;40.68;96770.63;4953251;28;20059;-65
2022/07/28 08:21:37;;;;;;;9.48;8.57;;;;;;;32.08;39.97;96769.81;4948800;28;20660;-67
2022/07/28 08:24:04;;;;;;;11.68;8.27;;;;;;;31.67;38.91;96671.28;4949716;28;20136;-59
2022/07/28 08:26:31;;;;;;;10.93;8.57;;;;;;;32.43;38.91;96754.97;4995147;28;20128;-62
2022/07/28 08:28:58;;;;;;;9.65;8.18;;;;;;;32.52;38.50;96780.53;4969087;28;20062;-69
2022/07/28 08:31:25;;;;;;;13.35;8.93;;;;;;;31.41;39.84;96750.16;4963603;28;20585;-66
2022/07/28 08:33:53;;;;;;;9.75;8.63;;;;;;;30.91;39.40;96563.91;4963098;28;20054;-66
2022/07/28 08:36:21;;;;;;;9.57;8.57;;;;;;;32.76;38.47;96772.16;4964758;28;20071;-63
2022/07/28 08:38:48;;;;;;;9.98;8.63;;;;;;;32.83;37.95;96760.13;4961253;28;20597;-58
2022/07/28 08:41:41;;;;;;;9.80;7.97;;;;;;;32.66;37.94;96773.72;4963846;28;20051;-62
2022/07/28 08:44:13;;;;;;;14.55;10.43;;;;;;;32.50;37.43;96757.31;4953831;28;20255;-59
2022/07/28 08:46:42;;;;;;;10.52;7.88;;;;;;;31.87;38.17;96748.44;4951431;28;20190;-60
2022/07/28 08:49:10;;;;;;;7.97;7.28;;;;;;;32.00;37.78;96725.00;4951163;28;20054;-64
2022/07/28 08:51:40;;;;;;;8.45;7.55;;;;;;;32.40;37.08;96747.44;4956921;28;20055;-63
2022/07/28 08:54:09;;;;;;;8.35;7.55;;;;;;;32.82;36.85;96775.78;4961500;28;20063;-62
2022/07/28 08:56:41;;;;;;;8.95;8.05;;;;;;;33.00;36.55;96783.88;4959209;28;20051;-68
2022/07/28 08:59:14;;;;;;;8.68;7.80;;;;;;;33.06;36.03;96746.50;4963843;28;20101;-59
2022/07/28 09:01:41;;;;;;;8.25;7.45;;;;;;;33.40;35.20;96768.84;4958216;28;20054;-69
2022/07/28 09:04:08;;;;;;;8.48;7.70;;;;;;;33.38;35.19;96748.47;4965906;28;20055;-65
2022/07/28 09:06:40;;;;;;;8.40;7.60;;;;;;;32.54;35.62;96686.13;4964688;28;20065;-61
2022/07/28 09:09:08;;;;;;;10.80;8.82;;;;;;;33.28;35.78;96784.53;4964127;28;20125;-72
2022/07/28 09:11:38;;;;;;;8.80;7.90;;;;;;;33.63;34.67;96778.94;4961866;28;20043;-71
2022/07/28 09:14:05;;;;;;;8.60;7.80;;;;;;;33.64;34.13;96759.56;4961065;28;20073;-67
2022/07/28 09:16:32;;;;;;;9.50;8.52;;;;;;;33.97;34.46;96788.16;4967778;28;20050;-63
2022/07/28 09:18:59;;;;;;;8.68;7.88;;;;;;;33.60;34.61;96774.25;4965682;28;20117;-67
2022/07/28 09:21:26;;;;;;;8.50;7.75;;;;;;;34.01;34.63;96782.91;4960748;28;20482;-64
2022/07/28 09:23:53;;;;;;;9.98;8.93;;;;;;;32.75;34.33;96667.28;4964883;28;20062;-62
2022/07/28 09:26:19;;;;;;;9.55;8.65;;;;;;;33.19;34.38;96781.97;4959223;28;20582;-61
2022/07/28 09:29:00;;;;;;;10.25;7.93;;;;;;;33.24;34.37;96783.25;4964458;28;20065;-63
2022/07/28 09:31:27;;;;;;;8.52;7.72;;;;;;;33.28;34.32;96760.78;4963059;28;20058;-67
2022/07/28 09:33:59;;;;;;;10.57;8.95;;;;;;;33.85;33.07;96777.22;4965589;28;20062;-63
2022/07/28 09:36:37;;;;;;;10.95;9.00;;;;;;;33.56;33.69;96765.09;4964642;28;20109;-61
2022/07/28 09:39:04;;;;;;;9.52;8.63;;;;;;;33.94;33.69;96776.94;4966522;28;20159;-65
2022/07/28 09:41:48;;;;;;;9.25;8.38;;;;;;;33.46;34.58;96722.88;4961373;28;20054;-62
2022/07/28 09:44:19;;;;;;;12.68;9.73;;;;;;;34.12;33.46;96782.03;4958832;28;21530;-62
2022/07/28 09:46:45;;;;;;;9.80;8.90;;;;;;;33.65;34.15;96773.41;4965152;28;20066;-61
2022/07/28 09:49:13;;;;;;;10.43;9.50;;;;;;;33.30;34.82;96753.22;4965624;28;20687;-61
2022/07/28 09:51:40;;;;;;;11.57;10.38;;;;;;;34.08;34.52;96770.03;4966922;28;20062;-64
2022/07/28 09:54:11;;;;;;;9.65;8.75;;;;;;;34.36;33.75;96767.72;4964860;28;20047;-64
2022/07/28 09:56:42;;;;;;;11.20;8.82;;;;;;;34.38;33.54;96767.97;4961295;28;20113;-64
2022/07/28 09:59:10;;;;;;;10.98;8.60;;;;;;;34.73;32.95;96770.81;4966169;28;20050;-64
2022/07/28 10:01:53;;;;;;;9.88;8.88;;;;;;;34.51;32.82;96768.16;4965549;28;20062;-60
2022/07/28 10:04:35;;;;;;;9.18;8.27;;;;;;;34.55;32.44;96768.63;4962593;28;20058;-64
2022/07/28 10:07:14;;;;;;;10.18;9.25;;;;;;;34.02;32.61;96772.19;4964511;28;20092;-63
2022/07/28 10:09:41;;;;;;;9.60;8.60;;;;;;;34.62;32.43;96765.19;4996342;28;20058;-63
2022/07/28 10:12:14;;;;;;;10.07;9.18;;;;;;;34.84;31.31;96765.72;4965968;28;20164;-62
2022/07/28 10:14:41;;;;;;;9.73;8.80;;;;;;;34.00;32.67;96728.81;4957987;28;20058;-60
2022/07/28 10:17:09;;;;;;;10.80;9.70;;;;;;;34.31;32.72;96766.47;4964510;28;20062;-59
2022/07/28 10:19:36;;;;;;;10.15;9.15;;;;;;;34.56;32.42;96758.66;4958845;28;20066;-64
2022/07/28 10:22:04;;;;;;;11.25;9.07;;;;;;;34.27;33.22;96750.81;4965469;28;20536;-64
2022/07/28 10:24:33;;;;;;;9.55;8.65;;;;;;;34.70;32.87;96786.25;4966246;28;20408;-64
2022/07/28 10:27:02;;;;;;;9.75;8.60;;;;;;;34.41;33.14;96746.78;4964845;28;20642;-64
2022/07/28 10:29:30;;;;;;;11.13;9.05;;;;;;;34.80;32.84;96758.69;4952667;28;20061;-64
2022/07/28 10:32:03;;;;;;;11.02;10.02;;;;;;;34.98;33.19;96749.38;4953797;28;20438;-60
2022/07/28 10:34:38;;;;;;;11.45;8.40;;;;;;;35.60;32.53;96742.31;4957806;28;20055;-61
2022/07/28 10:37:12;;;;;;;11.07;9.95;;;;;;;36.14;31.55;96742.84;4963589;28;20069;-64
2022/07/28 10:39:43;;;;;;;12.50;9.68;;;;;;;35.48;32.87;96717.84;4962732;28;20058;-64
2022/07/28 10:42:11;;;;;;;10.88;9.77;;;;;;;35.42;32.04;96648.00;4964336;28;20054;-61
2022/07/28 10:44:38;;;;;;;9.68;8.30;;;;;;;34.65;33.08;96743.94;4965219;28;20057;-61
2022/07/28 10:47:08;;;;;;;13.32;8.98;;;;;;;34.11;34.07;96725.84;4965740;28;20062;-64
2022/07/28 10:49:46;;;;;;;12.30;10.85;;;;;;;35.09;33.50;96729.09;4961618;28;20061;-64
2022/07/28 10:52:17;;;;;;;10.95;9.95;;;;;;;34.35;34.37;96674.13;4960501;28;20490;-64
2022/07/28 10:55:30;;;;;;;10.48;9.50;;;;;;;34.97;33.30;96727.66;4965440;28;20054;-64
2022/07/28 10:58:13;;;;;;;10.00;9.10;;;;;;;33.74;34.88;96700.47;4965693;28;20059;-62
2022/07/28 11:00:48;;;;;;;15.68;10.70;;;;;;;34.02;34.13;96737.69;4964658;28;20055;-63
2022/07/28 11:03:41;;;;;;;11.90;10.10;;;;;;;34.19;34.00;96726.81;4956906;28;20101;-63
2022/07/28 11:06:26;;;;;;;10.82;9.50;;;;;;;34.03;34.82;96721.97;4959372;28;20133;-64
2022/07/28 11:09:14;;;;;;;12.48;10.05;;;;;;;34.58;33.81;96682.00;4957460;28;20058;-68
2022/07/28 11:11:42;;;;;;;15.13;12.02;;;;;;;34.82;33.25;96638.03;4959883;28;20051;-61
2022/07/28 11:14:28;;;;;;;10.73;8.93;;;;;;;34.36;33.48;96713.84;4963212;28;20081;-60
2022/07/28 11:17:04;;;;;;;10.75;9.57;;;;;;;34.63;33.83;96735.06;4961926;28;20137;-70
2022/07/28 11:19:44;;;;;;;16.27;9.70;;;;;;;35.02;32.95;96704.56;4959148;28;20082;-64
2022/07/28 11:22:32;;;;;;;11.98;8.35;;;;;;;34.45;33.40;96667.50;4958817;28;20511;-61
2022/07/28 11:25:03;;;;;;;11.02;10.02;;;;;;;34.96;33.12;96714.56;4961855;28;20474;-64
2022/07/28 11:27:53;;;;;;;10.07;9.05;;;;;;;35.94;31.65;96708.81;4959301;28;20051;-63
2022/07/28 11:30:35;;;;;;;10.38;9.27;;;;;;;36.29;31.35;96711.38;4971791;28;20046;-63
2022/07/28 11:33:02;;;;;;;10.45;9.38;;;;;;;36.44;31.06;96700.09;4959045;28;20053;-64
2022/07/28 11:35:51;;;;;;;9.85;8.93;;;;;;;36.34;31.07;96696.09;4961080;28;20051;-61